createdAt,value
2018-12-31T00:00:43.391Z,10.30
2018-12-31T00:01:43.378Z,10.60
2018-12-31T00:02:43.379Z,10.70
2018-12-31T00:03:43.388Z,10.70
2018-12-31T00:04:43.355Z,11.60
2018-12-31T00:05:43.361Z,11.00
2018-12-31T00:06:43.334Z,10.70
2018-12-31T00:07:43.314Z,11.90
2018-12-31T00:08:43.318Z,10.30
2018-12-31T00:09:43.315Z,11.40
2018-12-31T00:10:43.305Z,10.60
2018-12-31T00:11:43.274Z,11.60
2018-12-31T00:12:43.263Z,11.50
2018-12-31T00:13:43.251Z,11.10
2018-12-31T00:14:43.268Z,11.10
2018-12-31T00:15:43.224Z,10.90
2018-12-31T00:16:43.218Z,10.80
2018-12-31T00:17:43.204Z,12.70
2018-12-31T00:18:43.198Z,11.20
2018-12-31T00:19:43.199Z,11.70
2018-12-31T00:20:43.173Z,11.50
2018-12-31T00:21:43.158Z,11.70
2018-12-31T00:22:43.162Z,11.70
2018-12-31T00:23:43.135Z,11.60
2018-12-31T00:24:43.125Z,11.40
2018-12-31T00:25:43.129Z,11.40
2018-12-31T00:26:43.099Z,11.20
2018-12-31T00:27:43.100Z,10.50
2018-12-31T00:28:43.085Z,11.10
2018-12-31T00:29:43.066Z,11.20
2018-12-31T00:30:43.075Z,11.30
2018-12-31T00:31:43.059Z,11.30
2018-12-31T00:32:43.039Z,11.30
2018-12-31T00:33:43.023Z,11.10
2018-12-31T00:34:43.031Z,12.00
2018-12-31T00:35:43.020Z,11.50
2018-12-31T00:36:42.992Z,11.00
2018-12-31T00:37:42.983Z,11.90
2018-12-31T00:38:42.970Z,12.30
2018-12-31T00:39:42.962Z,11.80
2018-12-31T00:40:42.973Z,11.30
2018-12-31T00:41:42.944Z,12.20
2018-12-31T00:42:42.954Z,12.30
2018-12-31T00:43:42.928Z,12.30
2018-12-31T00:44:42.905Z,11.80
2018-12-31T00:45:42.906Z,12.40
2018-12-31T00:46:42.915Z,11.80
2018-12-31T00:47:42.869Z,11.90
2018-12-31T00:48:42.859Z,12.60
2018-12-31T00:49:42.851Z,12.30
2018-12-31T00:50:42.884Z,12.00
2018-12-31T00:51:42.829Z,12.70
2018-12-31T00:52:42.819Z,13.00
2018-12-31T00:53:42.801Z,13.50
2018-12-31T00:54:42.792Z,13.00
2018-12-31T00:55:42.783Z,13.40
2018-12-31T00:56:42.794Z,13.90
2018-12-31T00:57:42.756Z,14.30
2018-12-31T00:58:42.791Z,14.90
2018-12-31T00:59:42.742Z,14.00
2018-12-31T01:00:42.725Z,13.70
2018-12-31T01:01:42.736Z,14.90
2018-12-31T01:02:42.706Z,15.00
2018-12-31T01:03:42.706Z,14.60
2018-12-31T01:04:42.695Z,14.70
2018-12-31T01:05:42.675Z,16.00
2018-12-31T01:06:42.686Z,15.20
2018-12-31T01:07:42.646Z,15.30
2018-12-31T01:08:42.644Z,16.10
2018-12-31T01:09:42.625Z,16.00
2018-12-31T01:10:42.622Z,15.60
2018-12-31T01:11:42.602Z,16.20
2018-12-31T01:12:42.618Z,15.90
2018-12-31T01:13:42.580Z,15.80
2018-12-31T01:14:42.569Z,16.20
2018-12-31T01:15:42.576Z,15.70
2018-12-31T01:16:42.545Z,16.60
2018-12-31T01:17:42.565Z,15.30
2018-12-31T01:18:42.529Z,16.30
2018-12-31T01:19:42.512Z,15.60
2018-12-31T01:20:42.502Z,17.40
2018-12-31T01:21:42.489Z,15.90
2018-12-31T01:22:42.499Z,17.10
2018-12-31T01:23:42.475Z,17.10
2018-12-31T01:24:42.463Z,16.10
2018-12-31T01:25:43.237Z,17.00
2018-12-31T01:26:42.434Z,16.60
2018-12-31T01:27:42.448Z,16.00
2018-12-31T01:28:42.415Z,15.90
2018-12-31T01:29:42.422Z,15.60
2018-12-31T01:30:42.400Z,16.20
2018-12-31T01:31:42.377Z,15.90
2018-12-31T01:32:42.386Z,16.30
2018-12-31T01:33:42.362Z,16.30
2018-12-31T01:34:42.434Z,16.30
2018-12-31T01:35:42.341Z,16.10
2018-12-31T01:36:42.330Z,16.00
2018-12-31T01:37:42.331Z,16.00
2018-12-31T01:38:42.302Z,16.40
2018-12-31T01:39:42.302Z,16.20
2018-12-31T01:40:42.284Z,15.50
2018-12-31T01:41:42.278Z,16.30
2018-12-31T01:42:42.270Z,16.40
2018-12-31T01:43:42.261Z,17.10
2018-12-31T01:44:42.234Z,16.90
2018-12-31T01:45:42.221Z,16.60
2018-12-31T01:46:42.208Z,16.70
2018-12-31T01:47:42.205Z,16.90
2018-12-31T01:48:42.219Z,17.20
2018-12-31T01:49:42.182Z,15.80
2018-12-31T01:50:42.170Z,15.80
2018-12-31T01:51:42.151Z,15.90
2018-12-31T01:52:42.147Z,17.00
2018-12-31T01:53:42.155Z,15.80
2018-12-31T01:54:42.119Z,15.80
2018-12-31T01:55:42.117Z,16.50
2018-12-31T01:56:42.103Z,16.10
2018-12-31T01:57:42.090Z,17.10
2018-12-31T01:58:42.093Z,16.10
2018-12-31T01:59:42.067Z,16.30
2018-12-31T02:00:42.061Z,16.10
2018-12-31T02:01:42.051Z,16.30
2018-12-31T02:02:42.034Z,17.00
2018-12-31T02:03:42.050Z,17.00
2018-12-31T02:04:42.021Z,16.40
2018-12-31T02:05:42.012Z,16.10
2018-12-31T02:06:41.989Z,16.20
2018-12-31T02:07:41.975Z,16.40
2018-12-31T02:08:41.994Z,15.80
2018-12-31T02:09:41.964Z,15.90
2018-12-31T02:10:41.945Z,16.10
2018-12-31T02:11:41.933Z,15.70
2018-12-31T02:12:41.918Z,16.70
2018-12-31T02:13:41.921Z,16.00
2018-12-31T02:14:41.924Z,16.10
2018-12-31T02:15:41.886Z,16.60
2018-12-31T02:16:41.873Z,16.90
2018-12-31T02:17:41.862Z,15.80
2018-12-31T02:18:41.856Z,16.00
2018-12-31T02:19:41.858Z,16.00
2018-12-31T02:20:41.842Z,16.30
2018-12-31T02:21:41.818Z,15.80
2018-12-31T02:22:41.812Z,15.90
2018-12-31T02:23:41.796Z,15.20
2018-12-31T02:24:41.804Z,15.60
2018-12-31T02:25:41.778Z,15.90
2018-12-31T02:26:41.776Z,16.00
2018-12-31T02:27:41.757Z,16.00
2018-12-31T02:28:41.741Z,15.80
2018-12-31T02:29:41.730Z,15.70
2018-12-31T02:30:41.737Z,16.20
2018-12-31T02:31:41.708Z,16.10
2018-12-31T02:32:41.705Z,15.70
2018-12-31T02:33:41.699Z,16.20
2018-12-31T02:34:41.693Z,17.30
2018-12-31T02:35:41.685Z,16.40
2018-12-31T02:36:41.652Z,15.70
2018-12-31T02:37:41.641Z,16.80
2018-12-31T02:38:41.630Z,16.10
2018-12-31T02:39:41.633Z,16.40
2018-12-31T02:40:41.636Z,16.30
2018-12-31T02:41:41.597Z,15.80
2018-12-31T02:42:41.593Z,16.30
2018-12-31T02:43:41.576Z,15.50
2018-12-31T02:44:41.573Z,15.80
2018-12-31T02:45:41.569Z,16.00
2018-12-31T02:46:41.581Z,15.40
2018-12-31T02:47:41.540Z,15.50
2018-12-31T02:48:41.517Z,15.80
2018-12-31T02:49:41.517Z,15.10
2018-12-31T02:50:41.498Z,15.60
2018-12-31T02:51:41.503Z,14.80
2018-12-31T02:52:41.471Z,15.20
2018-12-31T02:53:41.462Z,14.70
2018-12-31T02:54:41.457Z,15.30
2018-12-31T02:55:41.473Z,15.20
2018-12-31T02:56:41.429Z,15.00
2018-12-31T02:57:41.421Z,15.80
2018-12-31T02:58:41.413Z,14.80
2018-12-31T02:59:41.406Z,15.20
2018-12-31T03:00:41.394Z,14.60
2018-12-31T03:01:41.397Z,15.70
2018-12-31T03:02:41.377Z,15.10
2018-12-31T03:03:41.354Z,15.70
2018-12-31T03:04:41.338Z,15.50
2018-12-31T03:05:41.325Z,15.30
2018-12-31T03:06:41.329Z,15.50
2018-12-31T03:07:41.320Z,15.20
2018-12-31T03:08:41.298Z,15.20
2018-12-31T03:09:41.280Z,15.20
2018-12-31T03:10:41.268Z,15.20
2018-12-31T03:11:41.274Z,16.20
2018-12-31T03:12:41.245Z,14.50
2018-12-31T03:13:41.236Z,14.70
2018-12-31T03:14:41.233Z,14.50
2018-12-31T03:15:41.211Z,14.30
2018-12-31T03:16:41.238Z,15.70
2018-12-31T03:17:41.197Z,15.00
2018-12-31T03:18:41.179Z,14.90
2018-12-31T03:19:41.166Z,15.10
2018-12-31T03:20:41.165Z,15.00
2018-12-31T03:21:41.163Z,15.10
2018-12-31T03:22:41.152Z,15.00
2018-12-31T03:23:41.134Z,15.20
2018-12-31T03:24:41.112Z,15.00
2018-12-31T03:25:41.102Z,14.60
2018-12-31T03:26:41.088Z,14.50
2018-12-31T03:27:41.103Z,15.30
2018-12-31T03:28:41.070Z,13.80
2018-12-31T03:29:41.055Z,14.00
2018-12-31T03:30:41.049Z,13.40
2018-12-31T03:31:41.033Z,12.90
2018-12-31T03:32:41.046Z,13.60
2018-12-31T03:33:41.018Z,13.30
2018-12-31T03:34:41.002Z,13.30
2018-12-31T03:35:40.987Z,13.00
2018-12-31T03:36:40.992Z,13.00
2018-12-31T03:37:40.991Z,13.20
2018-12-31T03:38:40.953Z,13.30
2018-12-31T03:39:40.944Z,13.00
2018-12-31T03:40:40.941Z,13.50
2018-12-31T03:41:40.921Z,12.40
2018-12-31T03:42:40.940Z,13.70
2018-12-31T03:43:40.939Z,13.20
2018-12-31T03:44:40.891Z,12.90
2018-12-31T03:45:40.881Z,14.50
2018-12-31T03:46:40.876Z,13.80
2018-12-31T03:47:40.877Z,13.60
2018-12-31T03:48:40.840Z,12.90
2018-12-31T03:49:40.831Z,14.40
2018-12-31T03:50:40.893Z,13.00
2018-12-31T03:51:40.807Z,13.90
2018-12-31T03:52:40.830Z,12.90
2018-12-31T03:53:40.811Z,13.20
2018-12-31T03:54:40.783Z,13.70
2018-12-31T03:55:40.762Z,13.50
2018-12-31T03:56:40.755Z,13.40
2018-12-31T03:57:40.749Z,13.60
2018-12-31T03:58:40.730Z,13.40
2018-12-31T03:59:40.742Z,13.70
2018-12-31T04:00:40.711Z,13.60
2018-12-31T04:01:40.697Z,13.10
2018-12-31T04:02:40.721Z,13.20
2018-12-31T04:03:40.694Z,13.20
2018-12-31T04:04:40.664Z,12.60
2018-12-31T04:05:40.670Z,13.50
2018-12-31T04:06:40.643Z,13.30
2018-12-31T04:07:40.634Z,13.20
2018-12-31T04:08:40.620Z,12.70
2018-12-31T04:09:40.611Z,13.20
2018-12-31T04:10:40.635Z,13.20
2018-12-31T04:11:40.589Z,12.80
2018-12-31T04:12:40.585Z,12.80
2018-12-31T04:13:40.571Z,12.70
2018-12-31T04:14:40.567Z,12.90
2018-12-31T04:15:40.549Z,12.30
2018-12-31T04:16:40.539Z,13.30
2018-12-31T04:17:40.520Z,13.60
2018-12-31T04:18:40.512Z,12.80
2018-12-31T04:19:40.518Z,13.40
2018-12-31T04:20:40.499Z,12.40
2018-12-31T04:21:40.480Z,13.10
2018-12-31T04:22:40.460Z,13.30
2018-12-31T04:23:40.452Z,12.80
2018-12-31T04:24:40.443Z,13.50
2018-12-31T04:25:40.444Z,13.70
2018-12-31T04:26:40.420Z,12.80
2018-12-31T04:27:40.406Z,13.50
2018-12-31T04:28:40.393Z,13.40
2018-12-31T04:29:40.398Z,14.60
2018-12-31T04:30:40.390Z,15.10
2018-12-31T04:31:40.370Z,14.90
2018-12-31T04:32:40.361Z,14.30
2018-12-31T04:33:40.343Z,14.80
2018-12-31T04:34:40.347Z,14.70
2018-12-31T04:35:40.333Z,15.90
2018-12-31T04:36:40.306Z,15.70
2018-12-31T04:37:40.301Z,15.50
2018-12-31T04:38:40.280Z,16.00
2018-12-31T04:39:40.294Z,14.90
2018-12-31T04:40:40.263Z,15.10
2018-12-31T04:41:40.268Z,15.20
2018-12-31T04:42:40.237Z,15.50
2018-12-31T04:43:40.229Z,15.60
2018-12-31T04:44:40.235Z,14.60
2018-12-31T04:45:40.212Z,15.00
2018-12-31T04:46:40.191Z,15.00
2018-12-31T04:47:40.783Z,15.50
2018-12-31T04:48:40.172Z,15.80
2018-12-31T04:49:40.193Z,14.50
2018-12-31T04:50:40.170Z,16.20
2018-12-31T04:51:40.140Z,15.50
2018-12-31T04:52:40.134Z,15.60
2018-12-31T04:53:40.117Z,14.00
2018-12-31T04:54:40.115Z,14.50
2018-12-31T04:55:44.315Z,15.80
2018-12-31T04:56:40.088Z,14.90
2018-12-31T04:57:40.065Z,14.70
2018-12-31T04:58:40.063Z,14.50
2018-12-31T04:59:40.052Z,14.30
2018-12-31T05:00:40.053Z,14.30
2018-12-31T05:01:40.024Z,14.20
2018-12-31T05:02:40.024Z,13.90
2018-12-31T05:03:40.009Z,14.70
2018-12-31T05:04:39.988Z,14.00
2018-12-31T05:05:39.996Z,14.20
2018-12-31T05:06:39.993Z,13.70
2018-12-31T05:07:39.964Z,14.70
2018-12-31T05:08:39.945Z,13.60
2018-12-31T05:09:39.933Z,14.30
2018-12-31T05:10:39.931Z,13.70
2018-12-31T05:11:39.931Z,13.90
2018-12-31T05:12:39.904Z,14.30
2018-12-31T05:13:39.892Z,13.90
2018-12-31T05:14:39.884Z,13.70
2018-12-31T05:15:39.876Z,14.00
2018-12-31T05:16:39.887Z,14.10
2018-12-31T05:17:39.884Z,14.00
2018-12-31T05:18:39.849Z,13.90
2018-12-31T05:19:39.849Z,13.90
2018-12-31T05:20:39.823Z,14.10
2018-12-31T05:21:39.816Z,13.90
2018-12-31T05:22:39.787Z,14.00
2018-12-31T05:23:39.776Z,15.20
2018-12-31T05:24:39.771Z,14.80
2018-12-31T05:25:39.761Z,14.80
2018-12-31T05:26:39.771Z,14.20
2018-12-31T05:27:39.746Z,14.60
2018-12-31T05:28:39.721Z,14.40
2018-12-31T05:29:39.713Z,14.50
2018-12-31T05:30:39.708Z,14.70
2018-12-31T05:31:39.793Z,14.40
2018-12-31T05:32:39.691Z,15.70
2018-12-31T05:33:39.693Z,15.10
2018-12-31T05:34:39.660Z,14.70
2018-12-31T05:35:39.642Z,14.90
2018-12-31T05:36:39.635Z,15.10
2018-12-31T05:37:39.638Z,15.50
2018-12-31T05:38:39.701Z,14.40
2018-12-31T05:39:39.598Z,15.20
2018-12-31T05:40:39.593Z,15.30
2018-12-31T05:41:39.583Z,15.70
2018-12-31T05:42:39.592Z,15.10
2018-12-31T05:43:39.558Z,15.80
2018-12-31T05:44:39.550Z,15.60
2018-12-31T05:45:39.530Z,16.40
2018-12-31T05:46:39.522Z,15.70
2018-12-31T05:47:39.526Z,15.80
2018-12-31T05:48:39.502Z,15.70
2018-12-31T05:49:39.484Z,16.00
2018-12-31T05:50:39.478Z,17.00
2018-12-31T05:51:39.461Z,16.20
2018-12-31T05:52:39.471Z,16.10
2018-12-31T05:53:39.446Z,16.60
2018-12-31T05:54:39.456Z,17.00
2018-12-31T05:55:39.424Z,17.10
2018-12-31T05:56:39.408Z,16.90
2018-12-31T05:57:39.424Z,17.60
2018-12-31T05:58:39.388Z,16.50
2018-12-31T05:59:39.378Z,16.90
2018-12-31T06:00:39.364Z,17.00
2018-12-31T06:01:39.368Z,17.10
2018-12-31T06:02:39.341Z,17.30
2018-12-31T06:03:39.351Z,17.40
2018-12-31T06:04:39.324Z,16.50
2018-12-31T06:05:39.309Z,17.10
2018-12-31T06:06:39.300Z,17.00
2018-12-31T06:07:39.289Z,16.60
2018-12-31T06:08:39.291Z,17.30
2018-12-31T06:09:39.330Z,16.30
2018-12-31T06:10:39.275Z,16.40
2018-12-31T06:11:39.239Z,16.70
2018-12-31T06:12:39.236Z,17.20
2018-12-31T06:13:39.236Z,18.00
2018-12-31T06:14:39.207Z,17.60
2018-12-31T06:15:39.208Z,17.40
2018-12-31T06:16:39.185Z,17.40
2018-12-31T06:17:39.175Z,17.70
2018-12-31T06:18:39.177Z,17.60
2018-12-31T06:19:39.172Z,17.40
2018-12-31T06:20:39.148Z,17.40
2018-12-31T06:21:39.133Z,16.70
2018-12-31T06:22:39.117Z,17.70
2018-12-31T06:23:39.117Z,17.50
2018-12-31T06:24:39.095Z,17.50
2018-12-31T06:25:39.102Z,18.20
2018-12-31T06:26:39.085Z,18.30
2018-12-31T06:27:39.064Z,17.10
2018-12-31T06:28:39.059Z,17.20
2018-12-31T06:29:39.065Z,17.20
2018-12-31T06:30:39.064Z,17.60
2018-12-31T06:31:39.019Z,16.90
2018-12-31T06:32:39.006Z,17.40
2018-12-31T06:33:39.069Z,16.70
2018-12-31T06:34:39.003Z,16.90
2018-12-31T06:35:39.000Z,18.00
2018-12-31T06:36:38.962Z,16.00
2018-12-31T06:37:38.951Z,17.10
2018-12-31T06:38:38.948Z,17.50
2018-12-31T06:39:38.935Z,17.40
2018-12-31T06:40:38.962Z,17.20
2018-12-31T06:41:38.905Z,17.30
2018-12-31T06:42:38.909Z,17.00
2018-12-31T06:43:38.887Z,17.20
2018-12-31T06:44:38.876Z,17.00
2018-12-31T06:45:38.874Z,17.20
2018-12-31T06:46:38.873Z,16.70
2018-12-31T06:47:38.839Z,16.80
2018-12-31T06:48:38.832Z,17.40
2018-12-31T06:49:38.816Z,16.90
2018-12-31T06:50:38.835Z,16.90
2018-12-31T06:51:38.801Z,16.70
2018-12-31T06:52:38.796Z,16.80
2018-12-31T06:53:38.773Z,16.80
2018-12-31T06:54:38.771Z,17.10
2018-12-31T06:55:38.760Z,17.50
2018-12-31T06:56:38.753Z,17.40
2018-12-31T06:57:38.729Z,17.30
2018-12-31T06:58:38.717Z,16.70
2018-12-31T06:59:38.706Z,16.10
2018-12-31T07:00:38.692Z,17.20
2018-12-31T07:01:38.714Z,16.20
2018-12-31T07:02:38.673Z,17.10
2018-12-31T07:03:38.665Z,17.20
2018-12-31T07:04:38.657Z,17.00
2018-12-31T07:05:38.638Z,16.90
2018-12-31T07:06:38.646Z,16.30
2018-12-31T07:07:38.643Z,17.10
2018-12-31T07:08:38.615Z,16.70
2018-12-31T07:09:38.610Z,16.90
2018-12-31T07:10:38.589Z,17.20
2018-12-31T07:11:38.571Z,16.00
2018-12-31T07:12:38.571Z,17.20
2018-12-31T07:13:38.567Z,17.10
2018-12-31T07:14:38.544Z,16.80
2018-12-31T07:15:38.528Z,16.40
2018-12-31T07:16:38.537Z,16.80
2018-12-31T07:17:38.506Z,17.10
2018-12-31T07:18:38.494Z,16.50
2018-12-31T07:19:38.485Z,16.50
2018-12-31T07:20:38.472Z,16.20
2018-12-31T07:21:38.479Z,16.90
2018-12-31T07:22:38.466Z,17.20
2018-12-31T07:23:38.435Z,16.90
2018-12-31T07:24:38.425Z,15.90
2018-12-31T07:25:38.414Z,16.40
2018-12-31T07:26:38.403Z,16.30
2018-12-31T07:27:38.428Z,16.00
2018-12-31T07:28:38.409Z,15.80
2018-12-31T07:29:38.370Z,16.00
2018-12-31T07:30:38.356Z,15.90
2018-12-31T07:31:38.355Z,16.10
2018-12-31T07:32:38.340Z,17.20
2018-12-31T07:33:38.359Z,16.20
2018-12-31T07:34:38.333Z,16.10
2018-12-31T07:35:38.322Z,16.20
2018-12-31T07:36:38.300Z,16.70
2018-12-31T07:37:38.324Z,15.20
2018-12-31T07:38:38.294Z,15.40
2018-12-31T07:39:38.282Z,15.80
2018-12-31T07:40:38.254Z,14.90
2018-12-31T07:41:38.235Z,16.50
2018-12-31T07:42:38.243Z,15.40
2018-12-31T07:43:38.255Z,14.80
2018-12-31T07:44:38.220Z,15.40
2018-12-31T07:45:38.201Z,14.20
2018-12-31T07:46:38.191Z,15.40
2018-12-31T07:47:38.207Z,14.70
2018-12-31T07:48:38.161Z,14.30
2018-12-31T07:49:38.149Z,13.80
2018-12-31T07:50:38.170Z,14.50
2018-12-31T07:51:38.124Z,15.30
2018-12-31T07:52:38.134Z,14.70
2018-12-31T07:53:38.104Z,14.50
2018-12-31T07:54:38.092Z,15.30
2018-12-31T07:55:38.081Z,14.50
2018-12-31T07:56:38.069Z,14.60
2018-12-31T07:57:38.072Z,14.70
2018-12-31T07:58:38.050Z,14.20
2018-12-31T07:59:38.034Z,14.60
2018-12-31T08:00:38.024Z,15.10
2018-12-31T08:01:38.017Z,15.20
2018-12-31T08:02:38.034Z,13.90
2018-12-31T08:03:38.035Z,14.40
2018-12-31T08:04:37.998Z,14.40
2018-12-31T08:05:37.974Z,14.70
2018-12-31T08:06:38.032Z,14.50
2018-12-31T08:07:38.002Z,14.60
2018-12-31T08:08:37.934Z,14.10
2018-12-31T08:09:37.926Z,14.40
2018-12-31T08:10:37.912Z,14.40
2018-12-31T08:11:37.903Z,13.70
2018-12-31T08:12:37.897Z,13.40
2018-12-31T08:13:37.899Z,13.70
2018-12-31T08:14:37.871Z,14.00
2018-12-31T08:15:37.861Z,13.90
2018-12-31T08:16:37.845Z,13.10
2018-12-31T08:17:37.868Z,14.10
2018-12-31T08:18:37.830Z,13.50
2018-12-31T08:19:37.821Z,13.40
2018-12-31T08:20:37.803Z,13.30
2018-12-31T08:21:37.801Z,13.40
2018-12-31T08:22:37.814Z,13.10
2018-12-31T08:23:37.786Z,13.00
2018-12-31T08:24:37.786Z,13.30
2018-12-31T08:25:37.777Z,13.40
2018-12-31T08:26:37.746Z,13.30
2018-12-31T08:27:37.742Z,13.60
2018-12-31T08:28:37.760Z,12.20
2018-12-31T08:29:37.708Z,12.50
2018-12-31T08:30:37.697Z,13.40
2018-12-31T08:31:37.708Z,13.00
2018-12-31T08:32:37.741Z,12.80
2018-12-31T08:33:37.675Z,12.60
2018-12-31T08:34:37.657Z,12.00
2018-12-31T08:35:37.646Z,12.90
2018-12-31T08:36:37.647Z,12.80
2018-12-31T08:37:37.631Z,13.60
2018-12-31T08:38:37.635Z,12.30
2018-12-31T08:39:37.623Z,13.00
2018-12-31T08:40:37.594Z,13.40
2018-12-31T08:41:37.568Z,13.00
2018-12-31T08:42:37.587Z,13.10
2018-12-31T08:43:37.549Z,13.30
2018-12-31T08:44:37.554Z,13.40
2018-12-31T08:45:37.556Z,13.60
2018-12-31T08:46:37.532Z,13.80
2018-12-31T08:47:37.516Z,13.80
2018-12-31T08:48:37.498Z,13.60
2018-12-31T08:49:37.507Z,13.70
2018-12-31T08:50:37.478Z,13.30
2018-12-31T08:51:37.477Z,14.00
2018-12-31T08:52:37.448Z,13.50
2018-12-31T08:53:37.486Z,13.80
2018-12-31T08:54:37.468Z,13.90
2018-12-31T08:55:37.426Z,13.10
2018-12-31T08:56:37.415Z,12.90
2018-12-31T08:57:37.398Z,13.80
2018-12-31T08:58:37.390Z,13.90
2018-12-31T08:59:37.392Z,13.10
2018-12-31T09:00:37.411Z,13.40
2018-12-31T09:01:37.361Z,13.70
2018-12-31T09:02:37.355Z,13.40
2018-12-31T09:03:37.332Z,13.70
2018-12-31T09:04:37.352Z,14.00
2018-12-31T09:05:37.323Z,14.10
2018-12-31T09:06:37.297Z,13.30
2018-12-31T09:07:37.297Z,12.90
2018-12-31T09:08:37.280Z,14.00
2018-12-31T09:09:37.266Z,14.00
2018-12-31T09:10:37.280Z,14.20
2018-12-31T09:11:37.250Z,13.70
2018-12-31T09:12:37.682Z,13.70
2018-12-31T09:13:37.233Z,15.20
2018-12-31T09:14:37.218Z,13.90
2018-12-31T09:15:37.294Z,14.50
2018-12-31T09:16:37.190Z,14.10
2018-12-31T09:17:37.176Z,14.00
2018-12-31T09:18:37.184Z,13.80
2018-12-31T09:19:37.160Z,14.00
2018-12-31T09:20:37.139Z,15.10
2018-12-31T09:21:37.151Z,13.90
2018-12-31T09:22:37.122Z,13.90
2018-12-31T09:23:37.106Z,14.00
2018-12-31T09:24:44.501Z,13.30
2018-12-31T09:25:38.085Z,13.60
2018-12-31T09:26:37.115Z,13.60
2018-12-31T09:27:37.083Z,13.00
2018-12-31T09:28:37.053Z,13.70
2018-12-31T09:29:37.043Z,14.10
2018-12-31T09:30:37.060Z,13.00
2018-12-31T09:31:37.054Z,14.10
2018-12-31T09:32:37.011Z,14.00
2018-12-31T09:33:37.003Z,13.20
2018-12-31T09:34:36.993Z,13.60
2018-12-31T09:35:36.980Z,13.20
2018-12-31T09:36:36.990Z,13.60
2018-12-31T09:37:36.952Z,12.80
2018-12-31T09:38:36.962Z,12.50
2018-12-31T09:39:36.955Z,12.80
2018-12-31T09:40:36.932Z,12.90
2018-12-31T09:41:36.918Z,12.70
2018-12-31T09:42:36.940Z,13.20
2018-12-31T09:43:36.894Z,13.70
2018-12-31T09:44:36.882Z,13.00
2018-12-31T09:45:36.896Z,12.40
2018-12-31T09:46:36.853Z,13.10
2018-12-31T09:47:36.847Z,13.10
2018-12-31T09:48:36.868Z,13.10
2018-12-31T09:49:36.834Z,12.20
2018-12-31T09:50:36.822Z,13.30
2018-12-31T09:51:36.832Z,13.20
2018-12-31T09:52:36.787Z,12.90
2018-12-31T09:53:36.798Z,13.60
2018-12-31T09:54:36.854Z,13.50
2018-12-31T09:55:36.750Z,13.50
2018-12-31T09:56:36.751Z,13.20
2018-12-31T09:57:36.735Z,12.50
2018-12-31T09:58:36.748Z,12.90
2018-12-31T09:59:36.719Z,12.30
2018-12-31T10:00:36.715Z,13.10
2018-12-31T10:01:36.699Z,12.60
2018-12-31T10:02:36.675Z,12.70
2018-12-31T10:03:36.707Z,12.60
2018-12-31T10:04:36.664Z,12.20
2018-12-31T10:05:36.658Z,13.10
2018-12-31T10:06:36.663Z,12.70
2018-12-31T10:07:36.639Z,13.90
2018-12-31T10:08:36.645Z,12.90
2018-12-31T10:09:36.596Z,13.00
2018-12-31T10:10:36.623Z,12.20
2018-12-31T10:11:36.598Z,12.70
2018-12-31T10:12:36.580Z,12.10
2018-12-31T10:13:36.558Z,12.60
2018-12-31T10:14:36.584Z,11.90
2018-12-31T10:15:36.534Z,12.50
2018-12-31T10:16:36.525Z,12.50
2018-12-31T10:17:36.519Z,12.20
2018-12-31T10:18:36.534Z,12.40
2018-12-31T10:19:36.501Z,11.80
2018-12-31T10:20:36.498Z,11.80
2018-12-31T10:21:40.973Z,12.10
2018-12-31T10:22:36.469Z,11.90
2018-12-31T10:23:36.479Z,12.10
2018-12-31T10:24:36.442Z,12.10
2018-12-31T10:25:36.443Z,11.80
2018-12-31T10:26:36.433Z,11.40
2018-12-31T10:27:36.407Z,10.80
2018-12-31T10:28:36.400Z,11.70
2018-12-31T10:29:36.493Z,11.80
2018-12-31T10:30:36.440Z,12.20
2018-12-31T10:31:36.389Z,11.80
2018-12-31T10:32:36.350Z,11.90
2018-12-31T10:33:36.347Z,11.30
2018-12-31T10:34:36.418Z,11.70
2018-12-31T10:35:36.309Z,11.90
2018-12-31T10:36:36.317Z,12.70
2018-12-31T10:37:36.291Z,12.00
2018-12-31T10:38:36.289Z,11.60
2018-12-31T10:39:36.277Z,12.50
2018-12-31T10:40:36.310Z,12.60
2018-12-31T10:41:36.249Z,12.10
2018-12-31T10:42:36.240Z,12.80
2018-12-31T10:43:36.230Z,12.70
2018-12-31T10:44:36.220Z,12.20
2018-12-31T10:45:36.224Z,13.30
2018-12-31T10:46:36.201Z,12.60
2018-12-31T10:47:36.203Z,12.40
2018-12-31T10:48:36.181Z,12.00
2018-12-31T10:49:36.159Z,13.40
2018-12-31T10:50:36.175Z,12.30
2018-12-31T10:51:36.154Z,12.10
2018-12-31T10:52:36.137Z,12.30
2018-12-31T10:53:36.113Z,11.00
2018-12-31T10:54:36.100Z,11.90
2018-12-31T10:55:36.159Z,12.60
2018-12-31T10:56:36.088Z,11.80
2018-12-31T10:57:36.072Z,11.30
2018-12-31T10:58:36.086Z,12.10
2018-12-31T10:59:36.058Z,11.70
2018-12-31T11:00:36.060Z,11.30
2018-12-31T11:01:36.054Z,11.80
2018-12-31T11:02:36.014Z,12.30
2018-12-31T11:03:36.029Z,11.90
2018-12-31T11:04:36.001Z,12.60
2018-12-31T11:05:36.004Z,11.30
2018-12-31T11:06:35.966Z,14.40
2018-12-31T11:07:35.967Z,12.30
2018-12-31T11:08:36.030Z,11.50
2018-12-31T11:09:35.939Z,12.50
2018-12-31T11:10:35.944Z,12.20
2018-12-31T11:11:35.952Z,11.90
2018-12-31T11:12:35.918Z,12.60
2018-12-31T11:13:35.895Z,12.20
2018-12-31T11:14:35.888Z,11.80
2018-12-31T11:15:35.866Z,12.80
2018-12-31T11:16:35.880Z,12.50
2018-12-31T11:17:35.849Z,12.20
2018-12-31T11:18:35.847Z,11.70
2018-12-31T11:19:35.838Z,11.70
2018-12-31T11:20:35.819Z,10.50
2018-12-31T11:21:35.830Z,11.70
2018-12-31T11:22:35.808Z,11.40
2018-12-31T11:23:35.784Z,10.90
2018-12-31T11:24:35.776Z,11.80
2018-12-31T11:25:35.768Z,11.20
2018-12-31T11:26:35.771Z,11.30
2018-12-31T11:27:35.780Z,11.30
2018-12-31T11:28:35.720Z,11.40
2018-12-31T11:29:35.732Z,11.00
2018-12-31T11:30:35.763Z,11.00
2018-12-31T11:31:35.714Z,11.00
2018-12-31T11:32:35.680Z,11.00
2018-12-31T11:33:35.665Z,11.90
2018-12-31T11:34:35.655Z,12.10
2018-12-31T11:35:35.650Z,11.10
2018-12-31T11:36:35.674Z,11.80
2018-12-31T11:37:35.653Z,11.90
2018-12-31T11:38:35.629Z,12.30
2018-12-31T11:39:35.611Z,12.10
2018-12-31T11:40:35.652Z,11.80
2018-12-31T11:41:35.627Z,12.00
2018-12-31T11:42:35.595Z,11.60
2018-12-31T11:43:35.565Z,12.40
2018-12-31T11:44:35.566Z,11.80
2018-12-31T11:45:35.556Z,12.00
2018-12-31T11:46:35.538Z,12.20
2018-12-31T11:47:35.533Z,12.40
2018-12-31T11:48:35.530Z,12.50
2018-12-31T11:49:35.490Z,12.30
2018-12-31T11:50:35.480Z,12.80
2018-12-31T11:51:35.463Z,11.90
2018-12-31T11:52:35.479Z,12.50
2018-12-31T11:53:35.468Z,11.80
2018-12-31T11:54:35.432Z,12.50
2018-12-31T11:55:35.436Z,12.10
2018-12-31T11:56:35.412Z,12.50
2018-12-31T11:57:35.421Z,14.60
2018-12-31T11:58:35.431Z,12.30
2018-12-31T11:59:35.391Z,11.70
2018-12-31T12:00:35.373Z,11.90
2018-12-31T12:01:35.361Z,12.30
2018-12-31T12:02:35.347Z,11.80
2018-12-31T12:03:35.353Z,11.80
2018-12-31T12:04:35.365Z,12.00
2018-12-31T12:05:35.326Z,11.70
2018-12-31T12:06:35.320Z,12.50
2018-12-31T12:07:35.298Z,11.70
2018-12-31T12:08:35.301Z,11.50
2018-12-31T12:09:35.272Z,11.40
2018-12-31T12:10:35.276Z,11.00
2018-12-31T12:11:35.256Z,11.30
2018-12-31T12:12:35.240Z,12.30
2018-12-31T12:13:35.238Z,11.80
2018-12-31T12:14:35.226Z,11.70
2018-12-31T12:15:35.205Z,11.40
2018-12-31T12:16:35.195Z,11.10
2018-12-31T12:17:35.184Z,10.90
2018-12-31T12:18:35.219Z,11.30
2018-12-31T12:19:35.160Z,11.00
2018-12-31T12:20:35.148Z,11.50
2018-12-31T12:21:35.144Z,10.80
2018-12-31T12:22:35.134Z,11.80
2018-12-31T12:23:35.123Z,11.00
2018-12-31T12:24:35.152Z,11.40
2018-12-31T12:25:35.088Z,10.90
2018-12-31T12:26:35.078Z,10.90
2018-12-31T12:27:35.076Z,11.20
2018-12-31T12:28:35.053Z,11.20
2018-12-31T12:29:35.055Z,10.30
2018-12-31T12:30:35.031Z,10.60
2018-12-31T12:31:35.033Z,11.30
2018-12-31T12:32:35.024Z,10.20
2018-12-31T12:33:35.020Z,10.60
2018-12-31T12:34:35.020Z,10.90
2018-12-31T12:35:34.978Z,10.40
2018-12-31T12:36:34.987Z,10.70
2018-12-31T12:37:34.973Z,10.30
2018-12-31T12:38:34.950Z,10.60
2018-12-31T12:39:34.981Z,10.10
2018-12-31T12:40:34.935Z,10.50
2018-12-31T12:41:34.918Z,10.40
2018-12-31T12:42:34.918Z,9.80
2018-12-31T12:43:34.896Z,9.60
2018-12-31T12:44:34.927Z,10.20
2018-12-31T12:45:34.917Z,9.70
2018-12-31T12:46:34.867Z,9.50
2018-12-31T12:47:34.840Z,10.10
2018-12-31T12:48:34.835Z,9.40
2018-12-31T12:49:34.841Z,9.70
2018-12-31T12:50:34.862Z,10.10
2018-12-31T12:51:34.797Z,10.00
2018-12-31T12:52:34.791Z,9.30